Hlavní strana
METAR-TAF:

METAR-TAF

Letiště :

Bardufoss, Norsko

zeměpisná šířka: 69-04N, zeměpisná délka: 018-32E, výška: 7 m

Aktuální stav počasí

Zpráva byla vytvořena před 23 minutami, v 00:50 UTC
Severní vítr 4 kt, proměnlivý mezi severozápadním a severovýchodním
Teplota 8°C
Vlhkost vzduchu 93%
Tlak 1010 hPa
Viditelnost 10 km a více
slabý déšť

METAR: ENDU 220050Z AUTO 01004KT 310V050 9999 -RA BKN025/// OVC034/// 08/07 Q1010 RESHRA RMK WIND 1100FT 24006KT WIND 2200FT 25019KT

Čas: 03:13 (01:13 UTC)

Předpověď počasí

Předpověď platná od 22 v 00 UTC do 22 v 24 UTC
Jihozápadní vítr 5 kt
Viditelnost 10 km a více
Skoro jasno ve výšce 1000 ft
Oblačno až skoro zataženo ve výšce 4000 ft
slabé dešťové přeháňky
Dočasný
od 22 v 00 UTC do 22 v 06 UTC
Západní vítr 15 kt s nárazy do 25 kt
Polojasno ve výšce 2000 ft, Cumulonimbus.
Oblačno až skoro zataženo ve výšce 3000 ft
dešťové přeháňky

TAF: ENDU 2200/2224 23005KT 9999 -SHRA FEW010 BKN040 TEMPO 2200/2206 27015G25KT SHRA SCT020CB BKN030

Stav a předpovědi počasí z více než 4 000 letišť (zprávy METAR a TAF).

Červené a žluté tečky na mapě představují dostupné meteorologické stanice.

Když kurzor umístíte na tečku, zobrazí se název stanice.

Pak kliknutím zobrazíte stav a předpověď počasí.

Chcete-li změnit mapu, kliknutím na zelené tlačítko se znaménkem +mapu přiblížíte, kliknutím na zelené tlačítko se znaménkem – mapu oddálíte a kliknutím na zelené šipky přejdete na sousední mapy.


METAR-TAF: